Saint Louis, Missouri
Traffic Map
Current Weather Conditions
Saint Louis, Missouri
Overcast
Overcast
47°
Feels Like: 45°
Wind Chill: 45° Ceiling: 2000
Heat Index: 47° Visibility: 10mi
Dew Point: 42° Wind: 5mph
Humidity: 83% Direction: 190° (S)
Pressure: 30.07in Gusts: 0mph
Raw Report DataKCPS 180453Z AUTO 19004KT 10SM OVC020 08/06 A3007 RMK AO2 SLP183 T00830056 $
Traffic Incident Summary
Active as of:
Severity:
Category:
InformationThere was an issue retrieving the traffic information for this location. Please try a different location or try again shortly.
Advertisements